Maple Falls, WA (98266)

7:57 PM PDT on July 21, 2017 (GMT -0700)
Peaceful Valley 2 | | Change Station

Elev 515 ft 48.94 °N, 122.14 °W | Updated 1 minute ago

Overcast
Overcast
65.1 °F
Feels Like 65.1 °F
N
0.0
Wind Variable Wind from South

Today
High -- | Low -- °F
--% Chance of Precip.
Yesterday
High -- | Low -- °F
Precip. -- in
Pressure 30.15 in
Visibility 10.0 miles
Clouds Overcast 7000 ft
Dew Point 62 °F
Humidity 88%
Rainfall 0.00 in
Snow Depth Not available.
5:27 AM 9:01 PM
Waning Crescent, 2% visible
METAR KBLI 220253Z 00000KT 10SM OVC070 19/15 A3013 RMK AO2 RAB11E22 SLP209 P0000 60000 T01890150 56005
Pressure 30.15 in
Visibility 10.0 miles
Clouds Overcast 7000 ft
Dew Point 62 °F
Humidity 88%
Rainfall 0.00 in
Snow Depth Not available.
5:27 AM 9:01 PM
Waning Crescent, 2% visible
METAR KBLI 220253Z 00000KT 10SM OVC070 19/15 A3013 RMK AO2 RAB11E22 SLP209 P0000 60000 T01890150 56005

Get Severe Weather Alerts

Thanks for signing up!

Be on the lookout for a verification email in your inbox.

You'll start receiving the daily forecast at 6 AM.

×

10-Day Weather Forecast

Almanac

Astronomy

Jul. 21, 2017 Rise Set
Actual Time
Civil Twilight
Nautical Twilight
Astronomical Twilight
Moon
Length of Visible Light
Length of Day
Tomorrow will be .
, % of the Moon is Illuminated

Today's Extremes

State Highs State Lows

Community

WunderPhotos

Category 6

Welcome to Category 6. This is the collective home for Weather Underground's featured writeups by Dr. Jeff Masters (right), Bob Henson (left), Chris Burt, and other regular contributors.

Nearby

Air Quality

  Air Quality AQ Index Pollutant
Not available.

Snow Depth

Station Depth Elevation

Earthquake Activity

City Distance Mag. Time & Date
Minimum magnitude displayed is 2.5.

Coastal Water Temperatures

Place Temperature

Stations

Nearby Weather Stations

Station Location Temp. Windchill Dew Point Humidity Wind Precip. Elev Updated Type
                   

Watches & Warnings

There are currently no watches in effect.